createdAt,value
2023-01-17T00:00:08.247Z,97247.81
2023-01-17T00:02:35.835Z,97254.63
2023-01-17T00:05:04.664Z,97256.47
2023-01-17T00:07:32.588Z,97265.16
2023-01-17T00:10:01.878Z,97259.56
2023-01-17T00:12:31.232Z,97256.53
2023-01-17T00:14:59.573Z,97265.19
2023-01-17T00:17:28.828Z,97258.41
2023-01-17T00:19:57.012Z,97258.31
2023-01-17T00:22:29.874Z,97261.75
2023-01-17T00:24:57.859Z,97267.56
2023-01-17T00:27:25.574Z,97262.53
2023-01-17T00:29:53.331Z,97261.72
2023-01-17T00:32:21.212Z,97266.47
2023-01-17T00:34:48.875Z,97270.31
2023-01-17T00:37:16.484Z,97263.34
2023-01-17T00:39:44.916Z,97256.09
2023-01-17T00:42:12.496Z,97255.44
2023-01-17T00:44:40.191Z,97254.38
2023-01-17T00:47:08.206Z,97255.09
2023-01-17T00:49:35.813Z,97264.53
2023-01-17T00:52:03.503Z,97264.34
2023-01-17T00:54:31.408Z,97252.19
2023-01-17T00:56:59.101Z,97248.75
2023-01-17T00:59:26.785Z,97253.50
2023-01-17T01:01:54.799Z,97257.91
2023-01-17T01:04:22.621Z,97254.41
2023-01-17T01:06:50.178Z,97247.44
2023-01-17T01:09:18.741Z,97242.69
2023-01-17T01:11:46.449Z,97238.72
2023-01-17T01:14:14.037Z,97244.31
2023-01-17T01:16:42.023Z,97253.75
2023-01-17T01:19:09.718Z,97255.56
2023-01-17T01:21:37.388Z,97258.09
2023-01-17T01:24:05.563Z,97266.16
2023-01-17T01:26:33.166Z,97262.06
2023-01-17T01:29:00.793Z,97269.66
2023-01-17T01:31:28.776Z,97265.69
2023-01-17T01:33:56.419Z,97265.19
2023-01-17T01:36:24.441Z,97273.50
2023-01-17T01:38:52.345Z,97272.84
2023-01-17T01:41:20.176Z,97272.97
2023-01-17T01:43:49.219Z,97274.72
2023-01-17T01:46:24.089Z,97270.63
2023-01-17T01:48:51.692Z,97271.00
2023-01-17T01:51:32.353Z,97260.41
2023-01-17T01:54:07.919Z,97266.47
2023-01-17T01:56:36.356Z,97258.72
2023-01-17T01:59:07.523Z,97274.50
2023-01-17T02:01:36.668Z,97277.12
2023-01-17T02:04:05.670Z,97268.41
2023-01-17T02:06:42.360Z,97271.84
2023-01-17T02:09:12.139Z,97278.38
2023-01-17T02:11:40.540Z,97271.53
2023-01-17T02:14:09.104Z,97264.97
2023-01-17T02:17:01.956Z,97265.59
2023-01-17T02:19:54.570Z,97265.75
2023-01-17T02:22:37.593Z,97258.91
2023-01-17T02:25:17.462Z,97245.59
2023-01-17T02:28:04.916Z,97243.88
2023-01-17T02:30:37.464Z,97236.91
2023-01-17T02:33:12.302Z,97235.16
2023-01-17T02:35:53.439Z,97240.66
2023-01-17T02:38:34.241Z,97230.38
2023-01-17T02:41:27.575Z,97232.47
2023-01-17T02:43:55.528Z,97218.47
2023-01-17T02:46:23.162Z,97213.25
2023-01-17T02:48:51.726Z,97211.53
2023-01-17T02:51:19.644Z,97212.03
2023-01-17T02:53:49.877Z,97216.31
2023-01-17T02:56:52.282Z,97221.19
2023-01-17T02:59:26.235Z,97217.41
2023-01-17T03:02:38.332Z,97220.00
2023-01-17T03:05:20.357Z,97209.88
2023-01-17T03:07:48.327Z,97199.31
2023-01-17T03:10:17.375Z,97186.81
2023-01-17T03:12:45.304Z,97182.41
2023-01-17T03:15:15.225Z,97169.97
2023-01-17T03:17:49.482Z,97157.53
2023-01-17T03:20:17.432Z,97143.91
2023-01-17T03:22:45.336Z,97143.75
2023-01-17T03:25:13.009Z,97142.37
2023-01-17T03:27:40.664Z,97138.47
2023-01-17T03:30:09.242Z,97140.44
2023-01-17T03:32:36.962Z,97129.34
2023-01-17T03:35:05.073Z,97114.72
2023-01-17T03:37:32.976Z,97112.84
2023-01-17T03:40:00.805Z,97112.50
2023-01-17T03:42:28.494Z,97107.34
2023-01-17T03:44:56.357Z,97099.66
2023-01-17T03:47:24.111Z,97090.13
2023-01-17T03:49:52.216Z,97101.75
2023-01-17T03:52:20.214Z,97094.53
2023-01-17T03:54:47.781Z,97099.69
2023-01-17T03:57:15.425Z,97095.53
2023-01-17T03:59:43.459Z,97103.28
2023-01-17T04:02:11.364Z,97100.47
2023-01-17T04:04:39.242Z,97108.62
2023-01-17T04:07:06.820Z,97100.81
2023-01-17T04:09:34.370Z,97102.69
2023-01-17T04:12:02.855Z,97095.31
2023-01-17T04:14:30.494Z,97090.81
2023-01-17T04:16:58.240Z,97099.25
2023-01-17T04:19:26.249Z,97089.56
2023-01-17T04:21:53.967Z,97093.47
2023-01-17T04:24:21.639Z,97098.56
2023-01-17T04:26:49.610Z,97094.91
2023-01-17T04:29:17.331Z,97093.44
2023-01-17T04:31:45.022Z,97092.66
2023-01-17T04:34:13.244Z,97092.62
2023-01-17T04:36:41.117Z,97099.66
2023-01-17T04:39:08.804Z,97108.16
2023-01-17T04:41:36.775Z,97108.09
2023-01-17T04:44:04.745Z,97102.75
2023-01-17T04:46:32.365Z,97101.34
2023-01-17T04:49:00.351Z,97099.78
2023-01-17T04:51:27.990Z,97105.53
2023-01-17T04:53:55.625Z,97107.88
2023-01-17T04:56:23.486Z,97115.16
2023-01-17T04:58:51.332Z,97108.75
2023-01-17T05:01:20.021Z,97109.78
2023-01-17T05:03:48.023Z,97115.53
2023-01-17T05:06:15.918Z,97124.31
2023-01-17T05:08:43.682Z,97126.38
2023-01-17T05:11:11.712Z,97129.19
2023-01-17T05:13:39.400Z,97128.81
2023-01-17T05:16:07.204Z,97124.00
2023-01-17T05:18:35.153Z,97122.75
2023-01-17T05:21:03.736Z,97123.84
2023-01-17T05:23:31.548Z,97114.91
2023-01-17T05:25:59.628Z,97121.13
2023-01-17T05:28:27.306Z,97115.97
2023-01-17T05:30:54.942Z,97109.53
2023-01-17T05:33:22.937Z,97102.03
2023-01-17T05:35:50.657Z,97113.13
2023-01-17T05:38:18.443Z,97109.69
2023-01-17T05:40:46.756Z,97112.59
2023-01-17T05:43:14.372Z,97113.00
2023-01-17T05:45:42.134Z,97120.47
2023-01-17T05:48:10.107Z,97133.75
2023-01-17T05:50:38.132Z,97143.44
2023-01-17T05:53:11.126Z,97144.81
2023-01-17T05:55:39.519Z,97148.97
2023-01-17T05:58:08.376Z,97142.37
2023-01-17T06:00:50.990Z,97150.09
2023-01-17T06:03:18.955Z,97163.25
2023-01-17T06:05:46.698Z,97164.31
2023-01-17T06:08:14.446Z,97169.06
2023-01-17T06:10:42.532Z,97179.75
2023-01-17T06:13:12.203Z,97166.72
2023-01-17T06:15:41.268Z,97171.38
2023-01-17T06:18:17.850Z,97174.19
2023-01-17T06:20:52.669Z,97176.41
2023-01-17T06:23:21.201Z,97175.97
2023-01-17T06:25:49.461Z,97181.94
2023-01-17T06:28:21.883Z,97179.28
2023-01-17T06:30:50.327Z,97188.00
2023-01-17T06:33:17.907Z,97196.25
2023-01-17T06:35:52.721Z,97191.34
2023-01-17T06:38:20.756Z,97203.69
2023-01-17T06:40:48.973Z,97207.25
2023-01-17T06:43:16.739Z,97210.38
2023-01-17T06:45:44.609Z,97208.66
2023-01-17T06:48:12.358Z,97210.69
2023-01-17T06:50:40.193Z,97219.37
2023-01-17T06:53:08.104Z,97222.91
2023-01-17T06:55:37.534Z,97224.50
2023-01-17T06:58:05.555Z,97226.66
2023-01-17T07:00:33.989Z,97235.75
2023-01-17T07:03:01.866Z,97235.53
2023-01-17T07:05:29.772Z,97240.50
2023-01-17T07:07:58.006Z,97250.66
2023-01-17T07:10:25.938Z,97252.22
2023-01-17T07:12:58.567Z,97254.06
2023-01-17T07:15:26.555Z,97255.81
2023-01-17T07:17:54.315Z,97257.87
2023-01-17T07:20:21.916Z,97257.22
2023-01-17T07:22:55.080Z,97263.78
2023-01-17T07:25:22.648Z,97262.13
2023-01-17T07:27:53.827Z,97263.19
2023-01-17T07:30:23.998Z,97266.47
2023-01-17T07:32:53.011Z,97276.97
2023-01-17T07:35:21.527Z,97271.81
2023-01-17T07:37:50.186Z,97276.34
2023-01-17T07:40:19.097Z,97288.84
2023-01-17T07:42:47.058Z,97278.81
2023-01-17T07:45:17.177Z,97290.72
2023-01-17T07:47:45.477Z,97294.50
2023-01-17T07:50:13.141Z,97300.59
2023-01-17T07:52:41.001Z,97306.84
2023-01-17T07:55:09.601Z,97311.53
2023-01-17T07:57:37.364Z,97320.28
2023-01-17T08:00:05.896Z,97321.22
2023-01-17T08:02:39.625Z,97324.66
2023-01-17T08:05:07.712Z,97326.97
2023-01-17T08:07:35.479Z,97337.97
2023-01-17T08:10:03.256Z,97341.87
2023-01-17T08:12:31.310Z,97337.78
2023-01-17T08:14:59.017Z,97349.84
2023-01-17T08:17:26.626Z,97346.72
2023-01-17T08:19:54.672Z,97344.84
2023-01-17T08:22:22.311Z,97342.31
2023-01-17T08:24:49.906Z,97341.09
2023-01-17T08:27:17.723Z,97341.72
2023-01-17T08:29:45.369Z,97339.34
2023-01-17T08:32:13.127Z,97348.44
2023-01-17T08:34:41.305Z,97367.69
2023-01-17T08:37:09.886Z,97368.78
2023-01-17T08:39:37.624Z,97369.72
2023-01-17T08:42:05.880Z,97380.69
2023-01-17T08:44:34.603Z,97384.59
2023-01-17T08:47:02.501Z,97387.88
2023-01-17T08:49:30.490Z,97384.13
2023-01-17T08:51:58.272Z,97393.66
2023-01-17T08:54:25.893Z,97398.03
2023-01-17T08:56:53.849Z,97397.56
2023-01-17T08:59:21.877Z,97388.97
2023-01-17T09:01:49.570Z,97401.16
2023-01-17T09:04:17.945Z,97400.84
2023-01-17T09:06:45.570Z,97412.91
2023-01-17T09:09:13.448Z,97408.34
2023-01-17T09:11:41.519Z,97406.81
2023-01-17T09:14:12.463Z,97408.97
2023-01-17T09:16:40.187Z,97414.16
2023-01-17T09:19:09.173Z,97415.72
2023-01-17T09:21:36.899Z,97424.81
2023-01-17T09:24:04.761Z,97427.31
2023-01-17T09:26:32.872Z,97428.56
2023-01-17T09:29:00.486Z,97441.22
2023-01-17T09:31:28.236Z,97435.28
2023-01-17T09:33:57.483Z,97445.28
2023-01-17T09:36:25.985Z,97439.16
2023-01-17T09:38:58.451Z,97428.38
2023-01-17T09:41:35.388Z,97447.63
2023-01-17T09:44:08.051Z,97441.44
2023-01-17T09:46:44.824Z,97448.78
2023-01-17T09:49:38.765Z,97449.00
2023-01-17T09:52:08.867Z,97450.25
2023-01-17T09:54:41.758Z,97453.19
2023-01-17T09:57:40.603Z,97456.03
2023-01-17T10:00:20.216Z,97455.81
2023-01-17T10:02:48.251Z,97456.41
2023-01-17T10:05:33.896Z,97456.28
2023-01-17T10:08:07.939Z,97465.22
2023-01-17T10:10:42.013Z,97459.81
2023-01-17T10:13:19.081Z,97466.16
2023-01-17T10:16:14.599Z,97467.62
2023-01-17T10:18:51.642Z,97464.91
2023-01-17T10:21:52.807Z,97468.59
2023-01-17T10:24:43.880Z,97466.75
2023-01-17T10:27:27.471Z,97464.19
2023-01-17T10:29:55.466Z,97459.31
2023-01-17T10:32:26.044Z,97454.03
2023-01-17T10:35:01.745Z,97451.47
2023-01-17T10:37:42.659Z,97459.47
2023-01-17T10:40:24.821Z,97463.16
2023-01-17T10:42:57.912Z,97456.91
2023-01-17T10:45:27.378Z,97456.81
2023-01-17T10:48:05.088Z,97448.53
2023-01-17T10:50:44.139Z,97451.12
2023-01-17T10:53:25.115Z,97447.06
2023-01-17T10:55:53.175Z,97442.59
2023-01-17T10:58:21.440Z,97439.41
2023-01-17T11:00:55.860Z,97441.13
2023-01-17T11:03:23.835Z,97440.06
2023-01-17T11:06:26.485Z,97455.13
2023-01-17T11:08:59.315Z,97440.50
2023-01-17T11:11:32.359Z,97419.06
2023-01-17T11:14:01.758Z,97429.88
2023-01-17T11:16:30.245Z,97420.00
2023-01-17T11:19:30.453Z,97417.53
2023-01-17T11:22:00.781Z,97398.03
2023-01-17T11:24:36.558Z,97401.13
2023-01-17T11:27:08.329Z,97409.59
2023-01-17T11:29:38.727Z,97411.09
2023-01-17T11:32:31.194Z,97407.53
2023-01-17T11:35:16.481Z,97392.16
2023-01-17T11:38:02.659Z,97389.84
2023-01-17T11:40:32.459Z,97398.31
2023-01-17T11:43:12.576Z,97403.41
2023-01-17T11:45:40.800Z,97409.25
2023-01-17T11:48:08.669Z,97408.47
2023-01-17T11:50:38.727Z,97394.31
2023-01-17T11:53:23.559Z,97394.06
2023-01-17T11:56:09.385Z,97397.13
2023-01-17T11:58:40.689Z,97410.34
2023-01-17T12:01:08.817Z,97412.28
2023-01-17T12:03:44.963Z,97422.31
2023-01-17T12:06:57.307Z,97420.06
2023-01-17T12:09:35.849Z,97419.81
2023-01-17T12:12:26.219Z,97427.16
2023-01-17T12:15:22.861Z,97427.66
2023-01-17T12:17:53.095Z,97431.00
2023-01-17T12:20:35.444Z,97432.81
2023-01-17T12:23:35.314Z,97431.87
2023-01-17T12:26:30.385Z,97426.94
2023-01-17T12:29:35.964Z,97429.34
2023-01-17T12:32:18.452Z,97419.84
2023-01-17T12:35:18.285Z,97418.16
2023-01-17T12:38:00.380Z,97401.78
2023-01-17T12:40:37.468Z,97410.31
2023-01-17T12:43:15.562Z,97407.84
2023-01-17T12:45:45.225Z,97416.84
2023-01-17T12:48:18.149Z,97420.81
2023-01-17T12:51:23.492Z,97422.75
2023-01-17T12:53:54.862Z,97418.31
2023-01-17T12:56:35.847Z,97418.75
2023-01-17T12:59:18.970Z,97423.63
2023-01-17T13:01:54.700Z,97417.53
2023-01-17T13:04:58.499Z,97415.97
2023-01-17T13:07:44.204Z,97417.59
2023-01-17T13:10:44.637Z,97413.53
2023-01-17T13:13:27.358Z,97406.81
2023-01-17T13:16:02.868Z,97413.78
2023-01-17T13:18:30.689Z,97407.38
2023-01-17T13:21:29.277Z,97403.28
2023-01-17T13:23:57.616Z,97419.66
2023-01-17T13:26:56.253Z,97421.94
2023-01-17T13:29:59.585Z,97430.16
2023-01-17T13:32:43.325Z,97434.03
2023-01-17T13:35:40.485Z,97438.25
2023-01-17T13:39:02.815Z,97438.06
2023-01-17T13:41:36.306Z,97433.84
2023-01-17T13:44:04.681Z,97417.66
2023-01-17T13:46:58.446Z,97406.75
2023-01-17T13:49:28.853Z,97403.59
2023-01-17T13:52:18.882Z,97396.53
2023-01-17T13:54:49.382Z,97390.84
2023-01-17T13:57:28.541Z,97387.44
2023-01-17T13:59:59.350Z,97390.56
2023-01-17T14:02:32.631Z,97391.00
2023-01-17T14:05:13.199Z,97377.34
2023-01-17T14:07:49.349Z,97377.50
2023-01-17T14:10:25.775Z,97368.78
2023-01-17T14:12:54.550Z,97357.16
2023-01-17T14:15:28.290Z,97351.38
2023-01-17T14:17:59.565Z,97337.44
2023-01-17T14:20:27.392Z,97339.34
2023-01-17T14:23:00.757Z,97327.97
2023-01-17T14:25:38.444Z,97319.56
2023-01-17T14:28:26.349Z,97308.97
2023-01-17T14:30:55.536Z,97299.97
2023-01-17T14:33:28.079Z,97297.38
2023-01-17T14:36:03.613Z,97288.53
2023-01-17T14:38:33.008Z,97276.50
2023-01-17T14:41:03.322Z,97279.41
2023-01-17T14:43:33.396Z,97277.75
2023-01-17T14:46:28.395Z,97271.25
2023-01-17T14:49:04.315Z,97276.94
2023-01-17T14:51:32.640Z,97278.47
2023-01-17T14:54:01.823Z,97266.69
2023-01-17T14:56:31.090Z,97262.47
2023-01-17T14:59:14.896Z,97262.09
2023-01-17T15:02:06.239Z,97256.91
2023-01-17T15:04:35.179Z,97253.56
2023-01-17T15:07:03.560Z,97258.16
2023-01-17T15:09:37.830Z,97263.81
2023-01-17T15:12:12.221Z,97263.59
2023-01-17T15:14:43.105Z,97270.84
2023-01-17T15:17:18.588Z,97262.25
2023-01-17T15:20:15.876Z,97258.34
2023-01-17T15:22:43.767Z,97257.47
2023-01-17T15:25:11.822Z,97260.47
2023-01-17T15:27:40.728Z,97259.81
2023-01-17T15:30:14.830Z,97255.78
2023-01-17T15:32:47.184Z,97258.38
2023-01-17T15:35:20.096Z,97255.47
2023-01-17T15:37:53.058Z,97250.59
2023-01-17T15:40:23.535Z,97245.66
2023-01-17T15:42:53.880Z,97239.78
2023-01-17T15:45:29.148Z,97238.56
2023-01-17T15:47:57.451Z,97232.53
2023-01-17T15:50:29.859Z,97230.97
2023-01-17T15:53:05.735Z,97213.94
2023-01-17T15:55:38.434Z,97210.81
2023-01-17T15:58:28.310Z,97205.47
2023-01-17T16:00:56.636Z,97211.50
2023-01-17T16:03:27.720Z,97206.94
2023-01-17T16:05:56.890Z,97205.50
2023-01-17T16:08:26.044Z,97213.19
2023-01-17T16:10:55.934Z,97202.38
2023-01-17T16:13:23.835Z,97204.16
2023-01-17T16:15:51.600Z,97196.37
2023-01-17T16:18:22.494Z,97187.13
2023-01-17T16:20:55.207Z,97205.16
2023-01-17T16:23:23.043Z,97204.69
2023-01-17T16:25:51.189Z,97200.03
2023-01-17T16:28:18.888Z,97208.06
2023-01-17T16:30:46.747Z,97210.25
2023-01-17T16:33:15.218Z,97199.34
2023-01-17T16:35:42.812Z,97198.72
2023-01-17T16:38:12.566Z,97191.31
2023-01-17T16:40:42.381Z,97180.84
2023-01-17T16:43:10.868Z,97163.28
2023-01-17T16:45:43.634Z,97172.28
2023-01-17T16:48:12.071Z,97165.63
2023-01-17T16:50:44.703Z,97170.16
2023-01-17T16:53:12.637Z,97164.25
2023-01-17T16:55:42.263Z,97165.63
2023-01-17T16:58:10.282Z,97157.28
2023-01-17T17:00:39.862Z,97159.38
2023-01-17T17:03:07.539Z,97163.28
2023-01-17T17:05:35.126Z,97156.56
2023-01-17T17:08:03.137Z,97149.13
2023-01-17T17:10:30.976Z,97152.88
2023-01-17T17:12:58.773Z,97147.28
2023-01-17T17:15:26.696Z,97140.38
2023-01-17T17:17:59.327Z,97137.22
2023-01-17T17:20:30.031Z,97132.88
2023-01-17T17:22:57.752Z,97130.16
2023-01-17T17:25:26.952Z,97116.44
2023-01-17T17:27:55.152Z,97116.78
2023-01-17T17:30:22.966Z,97105.44
2023-01-17T17:32:50.519Z,97100.88
2023-01-17T17:35:18.458Z,97101.88
2023-01-17T17:37:46.103Z,97090.66
2023-01-17T17:40:15.289Z,97085.31
2023-01-17T17:42:43.596Z,97079.09
2023-01-17T17:45:11.525Z,97074.06
2023-01-17T17:47:39.134Z,97063.19
2023-01-17T17:50:10.720Z,97053.66
2023-01-17T17:52:38.384Z,97042.28
2023-01-17T17:55:07.125Z,97030.63
2023-01-17T17:57:35.009Z,97021.50
2023-01-17T18:00:05.195Z,97013.06
2023-01-17T18:02:34.553Z,96995.06
2023-01-17T18:05:02.905Z,96974.41
2023-01-17T18:07:31.449Z,96961.94
2023-01-17T18:09:59.403Z,96962.19
2023-01-17T18:12:27.282Z,96943.97
2023-01-17T18:14:54.981Z,96934.28
2023-01-17T18:17:22.933Z,96921.97
2023-01-17T18:19:50.927Z,96922.75
2023-01-17T18:22:18.729Z,96899.22
2023-01-17T18:24:46.692Z,96878.56
2023-01-17T18:27:14.897Z,96882.09
2023-01-17T18:29:47.888Z,96866.34
2023-01-17T18:32:16.135Z,96861.13
2023-01-17T18:34:44.062Z,96866.34
2023-01-17T18:37:11.722Z,96869.34
2023-01-17T18:39:47.525Z,96858.69
2023-01-17T18:42:15.880Z,96842.78
2023-01-17T18:44:44.297Z,96849.12
2023-01-17T18:47:12.128Z,96844.59
2023-01-17T18:49:43.033Z,96834.69
2023-01-17T18:52:11.361Z,96838.72
2023-01-17T18:54:39.318Z,96842.34
2023-01-17T18:57:08.154Z,96849.69
2023-01-17T18:59:36.595Z,96804.94
2023-01-17T19:02:05.455Z,96801.16
2023-01-17T19:04:33.396Z,96815.72
2023-01-17T19:07:01.527Z,96819.91
2023-01-17T19:09:29.555Z,96808.72
2023-01-17T19:11:57.599Z,96807.28
2023-01-17T19:14:27.025Z,96795.53
2023-01-17T19:16:56.025Z,96788.28
2023-01-17T19:19:24.047Z,96784.53
2023-01-17T19:21:52.403Z,96787.09
2023-01-17T19:24:20.333Z,96776.06
2023-01-17T19:26:50.280Z,96768.19
2023-01-17T19:29:18.464Z,96758.53
2023-01-17T19:31:46.652Z,96754.09
2023-01-17T19:34:14.662Z,96733.72
2023-01-17T19:36:42.901Z,96752.75
2023-01-17T19:39:10.975Z,96752.44
2023-01-17T19:41:43.932Z,96756.34
2023-01-17T19:44:14.855Z,96750.00
2023-01-17T19:46:42.672Z,96735.91
2023-01-17T19:49:10.530Z,96746.56
2023-01-17T19:51:38.885Z,96738.00
2023-01-17T19:54:07.141Z,96731.47
2023-01-17T19:56:36.182Z,96727.00
2023-01-17T19:59:04.584Z,96736.34
2023-01-17T20:01:34.080Z,96729.03
2023-01-17T20:04:04.137Z,96714.28
2023-01-17T20:06:35.054Z,96690.34
2023-01-17T20:09:05.584Z,96686.69
2023-01-17T20:11:36.226Z,96696.81
2023-01-17T20:14:04.688Z,96682.03
2023-01-17T20:16:35.659Z,96681.59
2023-01-17T20:19:08.859Z,96675.91
2023-01-17T20:21:36.951Z,96670.16
2023-01-17T20:24:06.002Z,96651.62
2023-01-17T20:26:34.962Z,96648.97
2023-01-17T20:29:08.627Z,96654.97
2023-01-17T20:31:39.252Z,96659.84
2023-01-17T20:34:09.208Z,96647.06
2023-01-17T20:36:37.635Z,96636.97
2023-01-17T20:39:07.974Z,96625.37
2023-01-17T20:41:38.427Z,96625.91
2023-01-17T20:44:07.707Z,96629.41
2023-01-17T20:46:42.913Z,96638.38
2023-01-17T20:49:16.962Z,96650.22
2023-01-17T20:51:46.283Z,96662.97
2023-01-17T20:54:16.407Z,96650.06
2023-01-17T20:56:44.986Z,96647.56
2023-01-17T20:59:15.199Z,96645.34
2023-01-17T21:01:44.028Z,96635.53
2023-01-17T21:04:14.625Z,96631.66
2023-01-17T21:06:43.074Z,96629.88
2023-01-17T21:09:13.385Z,96630.84
2023-01-17T21:11:41.069Z,96627.25
2023-01-17T21:14:08.628Z,96608.31
2023-01-17T21:16:36.737Z,96607.84
2023-01-17T21:19:05.330Z,96608.97
2023-01-17T21:21:32.962Z,96603.03
2023-01-17T21:24:00.914Z,96599.75
2023-01-17T21:26:28.672Z,96584.44
2023-01-17T21:28:56.506Z,96587.37
2023-01-17T21:31:29.581Z,96581.34
2023-01-17T21:34:03.791Z,96574.03
2023-01-17T21:36:52.274Z,96564.81
2023-01-17T21:39:20.277Z,96569.91
2023-01-17T21:41:48.537Z,96559.41
2023-01-17T21:44:21.008Z,96556.72
2023-01-17T21:46:49.614Z,96557.69
2023-01-17T21:49:17.800Z,96537.19
2023-01-17T21:51:46.005Z,96538.81
2023-01-17T21:54:13.915Z,96551.53
2023-01-17T21:56:41.623Z,96537.88
2023-01-17T21:59:09.540Z,96540.72
2023-01-17T22:01:38.070Z,96548.31
2023-01-17T22:04:06.328Z,96537.47
2023-01-17T22:06:34.127Z,96527.56
2023-01-17T22:09:01.879Z,96507.41
2023-01-17T22:11:29.831Z,96503.56
2023-01-17T22:13:59.189Z,96520.03
2023-01-17T22:16:27.078Z,96526.34
2023-01-17T22:18:56.158Z,96524.38
2023-01-17T22:21:26.375Z,96532.91
2023-01-17T22:23:56.600Z,96524.81
2023-01-17T22:26:27.381Z,96529.75
2023-01-17T22:28:55.052Z,96522.00
2023-01-17T22:31:26.993Z,96513.84
2023-01-17T22:33:56.212Z,96517.50
2023-01-17T22:36:25.604Z,96513.62
2023-01-17T22:38:53.542Z,96525.37
2023-01-17T22:41:23.880Z,96521.22
2023-01-17T22:43:53.292Z,96519.00
2023-01-17T22:46:26.323Z,96512.13
2023-01-17T22:48:55.002Z,96517.84
2023-01-17T22:51:24.252Z,96519.69
2023-01-17T22:53:54.389Z,96513.53
2023-01-17T22:56:24.524Z,96516.16
2023-01-17T22:58:52.777Z,96525.28
2023-01-17T23:01:25.684Z,96528.03
2023-01-17T23:03:59.070Z,96529.44
2023-01-17T23:06:28.744Z,96530.03
2023-01-17T23:08:58.978Z,96522.69
2023-01-17T23:11:34.454Z,96528.47
2023-01-17T23:14:02.392Z,96519.81
2023-01-17T23:16:30.073Z,96522.00
2023-01-17T23:18:57.779Z,96521.31
2023-01-17T23:21:25.841Z,96545.66
2023-01-17T23:23:53.463Z,96542.88
2023-01-17T23:26:21.156Z,96547.53
2023-01-17T23:28:49.088Z,96563.66
2023-01-17T23:31:16.838Z,96565.53
2023-01-17T23:33:44.487Z,96576.47
2023-01-17T23:36:12.313Z,96570.41
2023-01-17T23:38:39.993Z,96574.59
2023-01-17T23:41:08.644Z,96584.44
2023-01-17T23:43:36.949Z,96572.00
2023-01-17T23:46:05.504Z,96565.09
2023-01-17T23:48:33.132Z,96572.78
2023-01-17T23:51:03.125Z,96571.63
2023-01-17T23:53:30.733Z,96557.69
2023-01-17T23:55:58.379Z,96567.09
2023-01-17T23:58:27.334Z,96575.00
